Time;durP1;ratioP1;P1;durP2;ratioP2;P2;SDS_P1;SDS_P2;PMS_P1;PMS_P2;Temp;Humidity;BMP_temperature;BMP_pressure;BME280_temperature;BME280_humidity;BME280_pressure;Samples;Min_cycle;Max_cycle;Signal;HPM_P1;HPM_P2
2021/08/17 09:21:14;;;;;;;4.72;3.60;;;20.90;32.80;;;;;;5547500;22;20181;-81
2021/08/17 09:23:42;;;;;;;3.95;3.20;;;21.90;33.60;;;;;;5033878;28;20588;-82
2021/08/17 09:26:22;;;;;;;3.33;2.90;;;22.60;31.80;;;;;;5041097;28;20199;-85
2021/08/17 09:28:55;;;;;;;4.05;3.30;;;24.20;25.80;;;;;;5032732;28;20204;-84
2021/08/17 09:31:33;;;;;;;4.88;3.83;;;25.70;22.50;;;;;;5035425;28;20194;-84
2021/08/17 09:34:00;;;;;;;5.70;3.60;;;25.50;21.00;;;;;;5033331;28;20731;-84
2021/08/17 09:36:36;;;;;;;4.10;3.60;;;26.00;21.70;;;;;;5032096;28;20306;-84
2021/08/17 09:39:05;;;;;;;4.43;3.67;;;27.40;19.80;;;;;;5033383;28;20697;-84
2021/08/17 09:41:32;;;;;;;4.97;3.58;;;27.40;17.50;;;;;;5033224;28;20226;-83
2021/08/17 09:44:01;;;;;;;4.20;3.30;;;27.10;17.70;;;;;;5034613;28;20320;-86
2021/08/17 09:46:31;;;;;;;5.00;3.60;;;26.10;19.80;;;;;;5019900;28;20225;-84
2021/08/17 09:49:17;;;;;;;4.22;3.67;;;26.10;20.90;;;;;;5027088;28;20194;-84
2021/08/17 09:51:44;;;;;;;5.90;3.85;;;25.20;21.60;;;;;;5021955;28;20683;-85
2021/08/17 09:54:14;;;;;;;7.55;3.40;;;25.30;21.80;;;;;;5021219;28;20210;-83
2021/08/17 09:56:41;;;;;;;4.28;3.80;;;26.00;19.70;;;;;;5031407;28;20243;-84
2021/08/17 09:59:08;;;;;;;4.03;3.60;;;25.40;19.90;;;;;;5038889;28;20198;-84
2021/08/17 10:01:36;;;;;;;3.47;3.13;;;24.20;23.20;;;;;;5020183;28;20686;-84
2021/08/17 10:04:04;;;;;;;4.13;3.30;;;24.30;23.90;;;;;;5015227;28;20229;-83
2021/08/17 10:06:31;;;;;;;3.67;3.28;;;24.90;23.10;;;;;;5014904;28;20197;-85
2021/08/17 10:08:59;;;;;;;4.22;3.65;;;26.00;20.40;;;;;;5012544;28;20205;-87
2021/08/17 10:11:28;;;;;;;4.13;3.63;;;26.90;17.30;;;;;;5011147;28;20329;-85
2021/08/17 10:13:55;;;;;;;7.25;3.95;;;28.30;15.80;;;;;;5009037;28;20213;-86
2021/08/17 10:16:22;;;;;;;5.75;3.50;;;29.30;16.30;;;;;;5013264;28;20703;-85
2021/08/17 10:18:49;;;;;;;4.30;3.90;;;29.50;14.90;;;;;;5008434;28;20671;-87
2021/08/17 10:21:22;;;;;;;4.50;3.90;;;30.00;14.40;;;;;;5017319;28;20242;-87
2021/08/17 10:23:49;;;;;;;5.22;3.85;;;30.00;14.70;;;;;;5023319;28;20218;-83
2021/08/17 10:26:31;;;;;;;6.20;4.00;;;29.90;16.60;;;;;;5039756;28;20257;-84
2021/08/17 10:28:59;;;;;;;4.18;3.72;;;30.30;15.30;;;;;;5036663;28;20192;-85
2021/08/17 10:31:27;;;;;;;5.47;4.43;;;29.90;14.20;;;;;;5031410;28;20230;-85
2021/08/17 10:34:07;;;;;;;4.28;3.88;;;28.70;16.00;;;;;;5030399;28;20222;-85
2021/08/17 10:36:37;;;;;;;4.97;3.80;;;27.10;17.90;;;;;;5023330;28;20264;-85
2021/08/17 10:39:05;;;;;;;4.00;3.60;;;26.00;18.10;;;;;;5030826;28;20653;-86
2021/08/17 10:41:47;;;;;;;5.68;3.72;;;25.70;20.50;;;;;;5025334;28;20309;-84
2021/08/17 10:44:20;;;;;;;4.95;3.72;;;25.40;19.80;;;;;;5024598;28;20788;-86
2021/08/17 10:46:59;;;;;;;4.47;3.58;;;24.50;19.90;;;;;;5023934;28;20567;-86
2021/08/17 10:49:28;;;;;;;4.93;4.15;;;24.50;21.70;;;;;;5031691;28;20210;-87
2021/08/17 10:51:57;;;;;;;3.92;3.53;;;25.00;21.10;;;;;;5026913;28;20225;-85
2021/08/17 10:54:25;;;;;;;4.63;3.83;;;26.00;20.30;;;;;;5030545;28;20240;-85
2021/08/17 10:56:53;;;;;;;5.18;3.58;;;26.80;18.20;;;;;;5027439;28;20272;-85
2021/08/17 10:59:39;;;;;;;7.28;3.88;;;27.20;17.20;;;;;;5029481;28;20210;-88
2021/08/17 11:02:07;;;;;;;4.10;3.70;;;27.70;17.10;;;;;;5025204;28;20239;-86
2021/08/17 11:04:40;;;;;;;3.80;3.35;;;27.10;19.00;;;;;;5017239;28;20226;-87
2021/08/17 11:07:31;;;;;;;4.15;3.72;;;26.90;20.00;;;;;;5024347;28;20236;-87
2021/08/17 11:10:00;;;;;;;5.55;4.13;;;27.30;19.00;;;;;;5027233;28;20198;-86
2021/08/17 11:12:34;;;;;;;3.63;3.33;;;26.20;17.80;;;;;;5033588;28;20198;-87
2021/08/17 11:15:01;;;;;;;6.43;3.78;;;24.90;19.80;;;;;;5036074;28;20197;-84
2021/08/17 11:17:28;;;;;;;4.80;3.67;;;24.10;23.70;;;;;;5027374;28;20221;-83
2021/08/17 11:19:56;;;;;;;7.88;3.20;;;23.60;23.20;;;;;;5033742;28;20202;-84
2021/08/17 11:22:26;;;;;;;6.05;3.90;;;22.90;24.00;;;;;;5021073;28;20629;-83
2021/08/17 11:24:55;;;;;;;3.60;3.10;;;22.30;25.20;;;;;;5038435;28;20309;-83
2021/08/17 11:27:24;;;;;;;4.95;3.58;;;22.00;27.30;;;;;;5041827;28;20233;-86
2021/08/17 11:29:54;;;;;;;3.55;3.25;;;21.90;27.30;;;;;;5030943;28;20206;-85
2021/08/17 11:32:32;;;;;;;5.38;3.67;;;21.50;29.20;;;;;;5021736;28;20233;-86
2021/08/17 11:38:46;;;;;;;4.78;2.90;;;21.90;30.20;;;;;;5032101;28;20206;-85
2021/08/17 11:51:37;;;;;;;4.20;2.90;;;20.60;30.70;;;;;;5032157;28;20187;-85
2021/08/17 11:54:56;;;;;;;5.15;3.25;;;20.40;30.90;;;;;;5024854;28;20540;-85
2021/08/17 11:57:36;;;;;;;3.45;3.10;;;20.10;32.20;;;;;;5025901;28;20203;-85
2021/08/17 12:00:14;;;;;;;4.35;3.60;;;20.20;32.20;;;;;;5025690;28;20214;-85
2021/08/17 12:02:56;;;;;;;4.50;3.05;;;20.40;32.40;;;;;;5026598;28;20281;-85
2021/08/17 12:05:26;;;;;;;6.57;3.78;;;20.70;32.60;;;;;;5031878;28;20832;-84
2021/08/17 12:22:24;;;;;;;4.80;3.75;;;21.50;30.20;;;;;;4978428;28;20332;-85
2021/08/17 12:24:58;;;;;;;6.32;3.80;;;21.60;30.10;;;;;;4976999;28;20327;-85
2021/08/17 12:27:54;;;;;;;4.30;3.10;;;21.40;31.50;;;;;;4983578;28;20277;-86
